createdAt,value
2022-09-22T00:03:22.204Z,6.30
2022-09-22T00:10:05.558Z,6.70
2022-09-22T00:16:54.050Z,7.78
2022-09-22T00:23:37.139Z,5.40
2022-09-22T00:30:19.901Z,5.60
2022-09-22T00:37:02.888Z,7.53
2022-09-22T00:43:50.490Z,5.78
2022-09-22T00:50:33.423Z,6.32
2022-09-22T00:57:20.144Z,7.72
2022-09-22T01:04:04.390Z,6.80
2022-09-22T01:10:48.869Z,6.68
2022-09-22T01:18:03.792Z,8.32
2022-09-22T01:25:15.972Z,7.80
2022-09-22T01:32:24.005Z,4.60
2022-09-22T01:39:19.018Z,5.72
2022-09-22T01:46:06.548Z,6.32
2022-09-22T01:52:52.560Z,6.95
2022-09-22T01:59:39.971Z,5.70
2022-09-22T02:06:28.428Z,6.50
2022-09-22T02:13:10.795Z,7.20
2022-09-22T02:19:53.414Z,7.57
2022-09-22T02:26:36.785Z,5.43
2022-09-22T02:33:21.727Z,6.45
2022-09-22T02:40:22.504Z,6.03
2022-09-22T02:47:17.697Z,6.03
2022-09-22T02:54:01.760Z,5.82
2022-09-22T03:00:45.367Z,6.20
2022-09-22T03:07:27.708Z,5.97
2022-09-22T03:14:10.297Z,9.50
2022-09-22T03:20:52.601Z,7.97
2022-09-22T03:27:34.881Z,7.18
2022-09-22T03:34:17.226Z,6.15
2022-09-22T03:41:01.252Z,6.57
2022-09-22T03:47:43.634Z,8.63
2022-09-22T03:54:26.202Z,6.45
2022-09-22T04:01:09.582Z,6.25
2022-09-22T04:07:52.272Z,7.65
2022-09-22T04:14:34.734Z,7.45
2022-09-22T04:21:17.036Z,7.65
2022-09-22T04:28:02.300Z,7.60
2022-09-22T04:34:48.174Z,8.40
2022-09-22T04:41:30.876Z,6.55
2022-09-22T04:48:13.246Z,8.07
2022-09-22T04:54:55.555Z,7.65
2022-09-22T05:01:38.179Z,6.93
2022-09-22T05:08:20.499Z,7.75
2022-09-22T05:15:02.980Z,7.80
2022-09-22T05:21:45.398Z,5.78
2022-09-22T05:28:27.696Z,9.02
2022-09-22T05:35:14.165Z,9.35
2022-09-22T05:41:56.481Z,8.05
2022-09-22T05:48:38.797Z,8.52
2022-09-22T05:55:21.090Z,8.50
2022-09-22T06:02:18.036Z,13.27
2022-09-22T06:09:07.416Z,9.55
2022-09-22T06:15:49.797Z,14.00
2022-09-22T06:22:32.101Z,11.10
2022-09-22T06:29:14.470Z,37.80
2022-09-22T06:36:01.654Z,8.45
2022-09-22T06:42:43.968Z,12.02
2022-09-22T06:49:26.266Z,18.00
2022-09-22T06:56:08.884Z,16.98
2022-09-22T07:02:51.334Z,18.60
2022-09-22T07:09:33.628Z,9.43
2022-09-22T07:16:17.856Z,10.90
2022-09-22T07:23:00.470Z,7.97
2022-09-22T07:29:44.214Z,9.60
2022-09-22T07:36:31.995Z,9.35
2022-09-22T07:43:14.299Z,13.00
2022-09-22T07:49:56.620Z,12.32
2022-09-22T07:56:41.106Z,10.40
2022-09-22T08:03:23.414Z,9.88
2022-09-22T08:10:06.274Z,6.90
2022-09-22T08:16:50.647Z,11.80
2022-09-22T08:23:33.297Z,9.93
2022-09-22T08:30:16.381Z,6.57
2022-09-22T08:36:58.932Z,8.65
2022-09-22T08:43:52.564Z,5.47
2022-09-22T08:51:21.486Z,6.90
2022-09-22T08:58:24.533Z,5.60
2022-09-22T09:05:28.200Z,5.15
2022-09-22T09:12:20.642Z,2.80
2022-09-22T09:19:12.978Z,2.92
2022-09-22T09:25:56.477Z,2.03
2022-09-22T09:32:59.098Z,3.08
2022-09-22T09:39:43.067Z,4.55
2022-09-22T09:47:02.203Z,4.28
2022-09-22T09:53:46.334Z,1.95
2022-09-22T10:00:31.873Z,2.10
2022-09-22T10:07:23.191Z,2.35
2022-09-22T10:14:18.903Z,1.55
2022-09-22T10:21:22.726Z,2.38
2022-09-22T10:28:12.792Z,3.15
2022-09-22T10:34:59.342Z,2.22
2022-09-22T10:41:42.275Z,1.95
2022-09-22T10:48:42.079Z,1.63
2022-09-22T10:55:49.142Z,4.85
2022-09-22T11:02:50.213Z,1.83
2022-09-22T11:09:56.621Z,1.83
2022-09-22T11:17:10.375Z,1.80
2022-09-22T11:24:09.892Z,2.10
2022-09-22T11:30:54.495Z,1.23
2022-09-22T11:38:09.362Z,1.60
2022-09-22T11:45:13.295Z,1.60
2022-09-22T11:52:27.734Z,1.58
2022-09-22T11:59:38.626Z,1.10
2022-09-22T12:06:26.222Z,1.17
2022-09-22T12:13:21.472Z,1.33
2022-09-22T12:20:36.185Z,2.00
2022-09-22T12:27:25.992Z,1.65
2022-09-22T12:34:29.442Z,2.35
2022-09-22T12:41:19.516Z,2.75
2022-09-22T12:48:16.322Z,2.45
2022-09-22T12:55:17.446Z,1.38
2022-09-22T13:02:11.674Z,1.20
2022-09-22T13:08:53.992Z,1.25
2022-09-22T13:15:45.738Z,2.22
2022-09-22T13:22:28.538Z,2.42
2022-09-22T13:29:12.815Z,2.05
2022-09-22T13:36:03.307Z,1.70
2022-09-22T13:42:45.727Z,1.50
2022-09-22T13:49:32.112Z,1.08
2022-09-22T13:56:21.631Z,1.27
2022-09-22T14:03:04.606Z,1.55
2022-09-22T14:09:47.565Z,1.90
2022-09-22T14:16:36.269Z,1.10
2022-09-22T14:23:29.364Z,1.65
2022-09-22T14:30:17.678Z,1.88
2022-09-22T14:37:10.789Z,1.40
2022-09-22T14:43:54.609Z,1.77
2022-09-22T14:50:54.106Z,1.52
2022-09-22T14:57:36.665Z,1.38
2022-09-22T15:04:23.327Z,0.93
2022-09-22T15:11:05.880Z,1.77
2022-09-22T15:18:11.685Z,1.52
2022-09-22T15:24:54.622Z,1.10
2022-09-22T15:31:37.349Z,1.63
2022-09-22T15:38:29.242Z,1.30
2022-09-22T15:45:13.731Z,2.40
2022-09-22T15:51:56.522Z,3.40
2022-09-22T15:58:41.729Z,1.40
2022-09-22T16:05:24.999Z,1.42
2022-09-22T16:12:11.007Z,1.83
2022-09-22T16:18:53.694Z,1.60
2022-09-22T16:25:36.171Z,1.20
2022-09-22T16:32:18.796Z,1.83
2022-09-22T16:39:01.961Z,2.10
2022-09-22T16:46:02.979Z,1.50
2022-09-22T16:52:45.275Z,2.33
2022-09-22T16:59:27.771Z,3.63
2022-09-22T17:06:11.831Z,2.03
2022-09-22T17:12:56.204Z,3.83
2022-09-22T17:19:38.534Z,2.03
2022-09-22T17:26:21.250Z,2.88
2022-09-22T17:33:03.604Z,2.22
2022-09-22T17:39:46.818Z,3.05
2022-09-22T17:46:31.706Z,3.22
2022-09-22T17:53:32.812Z,3.55
2022-09-22T18:00:21.139Z,2.55
2022-09-22T18:07:06.931Z,2.20
2022-09-22T18:13:50.514Z,4.85
2022-09-22T18:20:34.313Z,4.25
2022-09-22T18:27:19.550Z,3.22
2022-09-22T18:34:02.035Z,4.53
2022-09-22T18:40:44.423Z,2.45
2022-09-22T18:47:26.973Z,3.33
2022-09-22T18:54:14.887Z,3.35
2022-09-22T19:00:59.092Z,5.00
2022-09-22T19:07:44.216Z,3.45
2022-09-22T19:14:27.438Z,2.67
2022-09-22T19:21:14.258Z,4.78
2022-09-22T19:27:56.907Z,5.30
2022-09-22T19:34:39.298Z,3.08
2022-09-22T19:41:24.002Z,3.35
2022-09-22T19:48:06.319Z,5.63
2022-09-22T19:54:48.623Z,4.38
2022-09-22T20:01:33.612Z,5.55
2022-09-22T20:08:15.998Z,3.72
2022-09-22T20:14:58.293Z,5.47
2022-09-22T20:21:43.022Z,5.15
2022-09-22T20:28:25.309Z,5.60
2022-09-22T20:35:11.649Z,4.47
2022-09-22T20:41:53.958Z,4.57
2022-09-22T20:48:36.723Z,3.88
2022-09-22T20:55:19.331Z,5.82
2022-09-22T21:02:01.778Z,5.75
2022-09-22T21:09:03.245Z,5.75
2022-09-22T21:15:45.649Z,3.47
2022-09-22T21:22:28.259Z,5.50
2022-09-22T21:29:10.629Z,5.65
2022-09-22T21:36:03.903Z,6.90
2022-09-22T21:42:46.962Z,8.63
2022-09-22T21:49:29.294Z,7.03
2022-09-22T21:56:13.601Z,5.85
2022-09-22T22:03:14.291Z,9.48
2022-09-22T22:09:56.635Z,5.60
2022-09-22T22:16:41.597Z,6.03
2022-09-22T22:23:23.954Z,7.40
2022-09-22T22:30:07.011Z,6.88
2022-09-22T22:36:49.747Z,7.05
2022-09-22T22:43:32.557Z,11.82
2022-09-22T22:50:14.922Z,7.72
2022-09-22T22:56:57.283Z,6.50
2022-09-22T23:03:44.535Z,6.10
2022-09-22T23:10:27.323Z,7.55
2022-09-22T23:17:09.650Z,7.03
2022-09-22T23:23:53.310Z,7.10
2022-09-22T23:30:35.831Z,9.07
2022-09-22T23:37:18.284Z,7.55
2022-09-22T23:44:00.835Z,6.65
2022-09-22T23:50:47.900Z,6.35
2022-09-22T23:57:30.241Z,6.53
